Portada
METAR-TAF:

METAR-TAF

Aeroports :

Bermudes, Bermudes

latitud: 32-22N, longitud: 064-41W, altitud: 6 m

Observació

L'informe es va fer fa 22 minuts, a les 08:55 UTC
Vent 12 kt del Nord/Nord-Oest
Temperatura 19°C
Humitat 49%
Pressió 1020 hPa
Visibilitat 10 km o més
Escasses núvols a una alçada de 4900 ft
Núvols disperses a una alçada de 6300 ft

METAR: TXKF 020855Z 33012KT 9999 FEW049 SCT063 19/08 Q1020

Hora: 06:17 (09:17 UTC)

Pronòstic

L'informe es va fer fa 3 hores i 39 minuts, a les 05:38 UTC
Pronòstic vàlid del 02 a les 06 UTC al 03 a les 06 UTC
Vent 13 kt del Nord/Nord-Oest
Visibilitat 10 km o més
Escasses núvols a una alçada de 4000 ft
Núvols disperses a una alçada de 30000 ft
Evolucionant progressivament
l' 03 a les 00 UTC al 03 a les 03 UTC
Vent 3 kt amb direcció variable

TAF: TXKF 020538Z 0206/0306 33013KT 9999 FEW040 SCT300 BECMG 0300/0303 VRB03KT

Observacions i pronòstics meteorològics de més de 4000 aeroports (METAR i TAF).

Les estacions disponibles són els punts grocs i vermells al mapa.

Posi el ratolí al punt desitjat per veure el nom de l'estació.

Feu clic per veure les observacions i els pronòstics meteorològics.

Per canviar el mapa: feu clic els botons verds amb una creu de color negre per apropar; al botó verd amb un guió per allunyar la imatge; o en les fletxes verdes per a mapes adjacents.


METAR-TAF: